Time;durP1;ratioP1;P1;durP2;ratioP2;P2;SDS_P1;SDS_P2;PMS_P1;PMS_P2;Temp;Humidity;BMP_temperature;BMP_pressure;BME280_temperature;BME280_humidity;BME280_pressure;Samples;Min_cycle;Max_cycle;Signal;HPM_P1;HPM_P2
2021/03/16 00:01:00;;;;;;;5.60;1.20;;;;;;;;;;5034861;28;20047;-55
2021/03/16 00:03:26;;;;;;;4.97;1.20;;;;;;;;;;5032112;28;20098;-56
2021/03/16 00:05:52;;;;;;;4.00;1.00;;;;;;;;;;5034284;28;20546;-55
2021/03/16 00:08:18;;;;;;;6.63;1.40;;;;;;;;;;5031273;28;20041;-55
2021/03/16 00:10:44;;;;;;;9.85;1.33;;;;;;;;;;5033194;28;20053;-56
2021/03/16 00:13:10;;;;;;;12.25;1.10;;;;;;;;;;5032163;28;20037;-53
2021/03/16 00:15:36;;;;;;;4.43;1.13;;;;;;;;;;5031804;28;20063;-57
2021/03/16 00:18:03;;;;;;;9.57;1.30;;;;;;;;;;5033050;28;20033;-54
2021/03/16 00:20:29;;;;;;;4.03;1.23;;;;;;;;;;5032042;28;20175;-56
2021/03/16 00:22:55;;;;;;;4.80;1.13;;;;;;;;;;5029934;28;20049;-56
2021/03/16 00:25:21;;;;;;;5.05;1.20;;;;;;;;;;5033424;28;20059;-55
2021/03/16 00:27:47;;;;;;;9.05;1.25;;;;;;;;;;5029441;28;20395;-53
2021/03/16 00:30:13;;;;;;;6.35;1.30;;;;;;;;;;5031573;28;20041;-54
2021/03/16 00:32:39;;;;;;;7.07;1.15;;;;;;;;;;5031508;28;20874;-53
2021/03/16 00:35:06;;;;;;;6.13;2.13;;;;;;;;;;5032148;28;20041;-56
2021/03/16 00:37:32;;;;;;;5.57;1.42;;;;;;;;;;5032143;28;20061;-56
2021/03/16 00:39:57;;;;;;;4.00;1.30;;;;;;;;;;5016987;28;20041;-57
2021/03/16 00:42:23;;;;;;;6.53;1.58;;;;;;;;;;5032248;28;20363;-56
2021/03/16 00:44:49;;;;;;;3.08;0.73;;;;;;;;;;5032416;28;20068;-56
2021/03/16 00:47:15;;;;;;;7.15;1.20;;;;;;;;;;5034367;28;20572;-58
2021/03/16 00:49:41;;;;;;;7.57;1.25;;;;;;;;;;5031689;28;20045;-55
2021/03/16 00:52:07;;;;;;;5.25;1.27;;;;;;;;;;5031260;28;20048;-57
2021/03/16 00:54:33;;;;;;;12.20;1.58;;;;;;;;;;5031996;28;20051;-56
2021/03/16 00:56:59;;;;;;;6.05;1.58;;;;;;;;;;5033381;28;20120;-55
2021/03/16 00:59:24;;;;;;;5.60;1.52;;;;;;;;;;5031758;28;20052;-56
2021/03/16 01:01:50;;;;;;;4.53;1.17;;;;;;;;;;5032066;28;20071;-59
2021/03/16 01:04:16;;;;;;;6.63;2.10;;;;;;;;;;5019605;28;20045;-55
2021/03/16 01:06:42;;;;;;;12.95;1.80;;;;;;;;;;5016856;28;20134;-55
2021/03/16 01:09:08;;;;;;;10.80;1.70;;;;;;;;;;5027524;28;20037;-53
2021/03/16 01:11:34;;;;;;;6.80;1.30;;;;;;;;;;5030292;28;20152;-55
2021/03/16 01:14:00;;;;;;;9.05;1.55;;;;;;;;;;5032309;28;21846;-54
2021/03/16 01:16:26;;;;;;;8.05;1.35;;;;;;;;;;5031722;28;20034;-56
2021/03/16 01:18:51;;;;;;;6.45;1.30;;;;;;;;;;5031510;28;20116;-56
2021/03/16 01:21:17;;;;;;;7.43;1.60;;;;;;;;;;5030482;28;20036;-54
2021/03/16 01:23:43;;;;;;;5.28;1.50;;;;;;;;;;5029409;28;20131;-55
2021/03/16 01:26:09;;;;;;;11.40;1.90;;;;;;;;;;5034349;28;20784;-54
2021/03/16 01:28:35;;;;;;;10.80;1.42;;;;;;;;;;5024203;28;20038;-56
2021/03/16 01:31:01;;;;;;;6.57;1.67;;;;;;;;;;5030202;28;20036;-56
2021/03/16 01:33:27;;;;;;;3.92;1.50;;;;;;;;;;5030584;28;20036;-56
2021/03/16 01:35:53;;;;;;;7.35;1.50;;;;;;;;;;5030192;28;20045;-57
2021/03/16 01:38:19;;;;;;;6.88;1.60;;;;;;;;;;5031894;28;20041;-54
2021/03/16 01:40:45;;;;;;;6.63;1.50;;;;;;;;;;5029761;28;20043;-57
2021/03/16 01:43:12;;;;;;;9.43;1.63;;;;;;;;;;5008878;28;20045;-57
2021/03/16 01:45:39;;;;;;;6.88;1.83;;;;;;;;;;5029301;28;20464;-56
2021/03/16 01:48:06;;;;;;;6.32;1.60;;;;;;;;;;5029484;28;20562;-56
2021/03/16 01:50:32;;;;;;;7.03;1.45;;;;;;;;;;5015360;28;20649;-54
2021/03/16 01:52:58;;;;;;;5.70;1.52;;;;;;;;;;5031983;28;20624;-58
2021/03/16 01:55:24;;;;;;;7.25;1.60;;;;;;;;;;5032579;28;20049;-55
2021/03/16 01:57:51;;;;;;;9.30;1.80;;;;;;;;;;5033521;28;20041;-55
2021/03/16 02:00:18;;;;;;;7.60;1.48;;;;;;;;;;5026545;28;20157;-57
2021/03/16 02:02:44;;;;;;;10.20;1.88;;;;;;;;;;5015270;28;20056;-55
2021/03/16 02:05:10;;;;;;;12.38;2.10;;;;;;;;;;5013965;28;20056;-56
2021/03/16 02:07:59;;;;;;;9.02;1.90;;;;;;;;;;5028507;28;20097;-55
2021/03/16 02:10:30;;;;;;;5.28;1.75;;;;;;;;;;5014267;28;20045;-55
2021/03/16 02:12:56;;;;;;;13.68;1.83;;;;;;;;;;5030593;28;20160;-57
2021/03/16 02:15:24;;;;;;;8.80;1.65;;;;;;;;;;5032248;28;20090;-54
2021/03/16 02:17:53;;;;;;;5.10;2.00;;;;;;;;;;5029612;28;20052;-56
2021/03/16 02:20:37;;;;;;;9.98;3.40;;;;;;;;;;5031415;28;20048;-56
2021/03/16 02:23:04;;;;;;;8.95;1.63;;;;;;;;;;5028747;28;20038;-56
2021/03/16 02:25:57;;;;;;;11.43;1.73;;;;;;;;;;5027628;28;20080;-51
2021/03/16 02:28:29;;;;;;;7.57;1.92;;;;;;;;;;5023166;28;20123;-55
2021/03/16 02:30:55;;;;;;;7.45;1.50;;;;;;;;;;5029931;28;20594;-53
2021/03/16 02:33:25;;;;;;;8.77;1.80;;;;;;;;;;5027858;28;20493;-55
2021/03/16 02:35:52;;;;;;;5.28;1.25;;;;;;;;;;5028377;28;20111;-55
2021/03/16 02:38:19;;;;;;;4.93;1.27;;;;;;;;;;5029680;28;20043;-55
2021/03/16 02:40:47;;;;;;;6.28;1.25;;;;;;;;;;5021657;28;20061;-54
2021/03/16 02:43:14;;;;;;;5.07;1.25;;;;;;;;;;5012531;28;22056;-53
2021/03/16 02:45:40;;;;;;;9.32;1.23;;;;;;;;;;5017468;28;20045;-52
2021/03/16 02:48:07;;;;;;;5.15;1.05;;;;;;;;;;5023929;28;20627;-54
2021/03/16 02:50:34;;;;;;;7.93;1.20;;;;;;;;;;5022800;28;20055;-54
2021/03/16 02:53:00;;;;;;;3.92;1.25;;;;;;;;;;5028235;28;20090;-55
2021/03/16 02:55:27;;;;;;;7.25;1.50;;;;;;;;;;5028460;28;20037;-54
2021/03/16 02:57:53;;;;;;;10.60;1.25;;;;;;;;;;5026417;28;20159;-54
2021/03/16 03:00:19;;;;;;;8.15;1.10;;;;;;;;;;5025928;28;20066;-55
2021/03/16 03:02:48;;;;;;;5.22;1.60;;;;;;;;;;5024457;28;20056;-56
2021/03/16 03:05:14;;;;;;;7.75;1.35;;;;;;;;;;5026218;28;20053;-55
2021/03/16 03:07:44;;;;;;;6.03;1.20;;;;;;;;;;5024630;28;20491;-54
2021/03/16 03:10:10;;;;;;;7.10;1.40;;;;;;;;;;5018678;28;20079;-55
2021/03/16 03:12:37;;;;;;;11.57;1.60;;;;;;;;;;5026263;28;20033;-55
2021/03/16 03:15:05;;;;;;;6.30;2.25;;;;;;;;;;5032361;28;20077;-57
2021/03/16 03:17:31;;;;;;;7.68;1.45;;;;;;;;;;5023267;28;20063;-56
2021/03/16 03:19:57;;;;;;;5.80;2.05;;;;;;;;;;5024803;28;20037;-55
2021/03/16 03:22:26;;;;;;;8.23;1.92;;;;;;;;;;5018015;28;20069;-52
2021/03/16 03:24:56;;;;;;;10.40;1.73;;;;;;;;;;5027370;28;20063;-51
2021/03/16 03:27:26;;;;;;;6.25;1.30;;;;;;;;;;5026470;28;20079;-55
2021/03/16 03:29:53;;;;;;;19.90;1.85;;;;;;;;;;5031472;28;20234;-55
2021/03/16 03:32:21;;;;;;;8.23;1.52;;;;;;;;;;5031017;28;20405;-54
2021/03/16 03:34:48;;;;;;;5.65;1.48;;;;;;;;;;5029658;28;20130;-55
2021/03/16 03:37:15;;;;;;;5.55;1.60;;;;;;;;;;5030922;28;20052;-55
2021/03/16 03:39:41;;;;;;;9.57;1.50;;;;;;;;;;5007711;28;20041;-55
2021/03/16 03:42:07;;;;;;;6.43;1.67;;;;;;;;;;5029331;28;20033;-56
2021/03/16 03:44:34;;;;;;;7.18;1.73;;;;;;;;;;5026756;28;20037;-53
2021/03/16 03:47:04;;;;;;;15.52;1.73;;;;;;;;;;5015595;28;20060;-56
2021/03/16 03:49:30;;;;;;;8.60;1.83;;;;;;;;;;5030117;28;20049;-52
2021/03/16 03:51:57;;;;;;;8.05;1.50;;;;;;;;;;5030734;28;20132;-56
2021/03/16 03:54:23;;;;;;;7.93;1.40;;;;;;;;;;5030599;28;20563;-54
2021/03/16 03:56:49;;;;;;;7.65;1.65;;;;;;;;;;5031567;28;20045;-52
2021/03/16 03:59:16;;;;;;;7.65;2.50;;;;;;;;;;5015936;28;20112;-52
2021/03/16 04:01:42;;;;;;;6.90;1.80;;;;;;;;;;5027537;28;20090;-54
2021/03/16 04:04:08;;;;;;;8.70;2.10;;;;;;;;;;5032642;28;20045;-54
2021/03/16 04:06:35;;;;;;;6.10;1.60;;;;;;;;;;5032898;28;20059;-56
2021/03/16 04:09:01;;;;;;;7.63;1.70;;;;;;;;;;5016983;28;20051;-54
2021/03/16 04:11:27;;;;;;;10.25;2.35;;;;;;;;;;5033198;28;20098;-55
2021/03/16 04:13:53;;;;;;;27.05;8.15;;;;;;;;;;5034221;28;20041;-56
2021/03/16 04:16:20;;;;;;;22.73;7.45;;;;;;;;;;5029732;28;20033;-53
2021/03/16 04:18:46;;;;;;;12.63;4.45;;;;;;;;;;5016665;28;20143;-56
2021/03/16 04:21:13;;;;;;;11.38;3.33;;;;;;;;;;5029064;28;20058;-56
2021/03/16 04:23:39;;;;;;;9.10;3.47;;;;;;;;;;5030071;28;20042;-56
2021/03/16 04:26:05;;;;;;;15.18;5.22;;;;;;;;;;5033522;28;20053;-53
2021/03/16 04:28:31;;;;;;;12.88;4.00;;;;;;;;;;5031920;28;20037;-55
2021/03/16 04:30:56;;;;;;;10.15;2.08;;;;;;;;;;5033527;28;20128;-56
2021/03/16 04:33:22;;;;;;;10.30;3.97;;;;;;;;;;5030166;28;20049;-55
2021/03/16 04:35:48;;;;;;;8.45;3.40;;;;;;;;;;5031731;28;20028;-55
2021/03/16 04:38:14;;;;;;;12.60;2.67;;;;;;;;;;5033214;28;20061;-53
2021/03/16 04:40:40;;;;;;;5.95;1.80;;;;;;;;;;5030117;28;20041;-54
2021/03/16 04:43:07;;;;;;;5.70;1.92;;;;;;;;;;5032339;28;20039;-52
2021/03/16 04:45:33;;;;;;;9.95;2.00;;;;;;;;;;5029761;28;20153;-55
2021/03/16 04:47:59;;;;;;;8.18;2.10;;;;;;;;;;5033106;28;20037;-55
2021/03/16 04:50:25;;;;;;;6.78;2.00;;;;;;;;;;5031699;28;20276;-54
2021/03/16 04:52:51;;;;;;;8.35;1.88;;;;;;;;;;5031440;28;20041;-56
2021/03/16 04:55:17;;;;;;;6.28;1.50;;;;;;;;;;5030642;28;20033;-56
2021/03/16 04:57:42;;;;;;;5.10;1.38;;;;;;;;;;5031212;28;20413;-56
2021/03/16 05:00:09;;;;;;;9.25;1.63;;;;;;;;;;5029273;28;20048;-52
2021/03/16 05:02:35;;;;;;;7.97;1.50;;;;;;;;;;5031905;28;20052;-54
2021/03/16 05:05:00;;;;;;;8.70;1.30;;;;;;;;;;5033685;28;20040;-55
2021/03/16 05:07:26;;;;;;;5.63;1.50;;;;;;;;;;5032725;28;20166;-53
2021/03/16 05:09:52;;;;;;;8.55;1.60;;;;;;;;;;5031320;28;20044;-56
2021/03/16 05:12:18;;;;;;;4.68;1.60;;;;;;;;;;5031676;28;20090;-53
2021/03/16 05:14:44;;;;;;;9.27;1.80;;;;;;;;;;5030342;28;20490;-54
2021/03/16 05:17:10;;;;;;;6.15;1.67;;;;;;;;;;5031614;28;20045;-53
2021/03/16 05:19:36;;;;;;;8.05;1.75;;;;;;;;;;5030287;28;20038;-55
2021/03/16 05:22:02;;;;;;;14.65;4.43;;;;;;;;;;5034640;28;20051;-52
2021/03/16 05:24:28;;;;;;;10.15;2.42;;;;;;;;;;5016080;28;20083;-54
2021/03/16 05:26:54;;;;;;;13.07;1.88;;;;;;;;;;5032235;28;20149;-54
2021/03/16 05:29:20;;;;;;;10.93;1.65;;;;;;;;;;5031494;28;20099;-55
2021/03/16 05:31:45;;;;;;;4.97;1.48;;;;;;;;;;5031264;28;20151;-55
2021/03/16 05:34:12;;;;;;;6.82;1.30;;;;;;;;;;5031258;28;20574;-55
2021/03/16 05:36:38;;;;;;;4.53;1.50;;;;;;;;;;5031836;28;20040;-56
2021/03/16 05:39:04;;;;;;;5.57;1.83;;;;;;;;;;5031073;28;20045;-55
2021/03/16 05:41:30;;;;;;;6.72;1.67;;;;;;;;;;5031728;28;20608;-54
2021/03/16 05:43:56;;;;;;;6.57;1.42;;;;;;;;;;5022923;28;20155;-56
2021/03/16 05:46:22;;;;;;;4.88;1.42;;;;;;;;;;5033426;28;20052;-53
2021/03/16 05:48:49;;;;;;;7.00;1.65;;;;;;;;;;5033621;28;20041;-54
2021/03/16 05:51:16;;;;;;;6.53;2.08;;;;;;;;;;5033231;28;20137;-52
2021/03/16 05:53:45;;;;;;;5.38;2.30;;;;;;;;;;5024635;28;20044;-55
2021/03/16 05:56:10;;;;;;;6.18;1.38;;;;;;;;;;5032111;28;20040;-54
2021/03/16 05:58:36;;;;;;;8.32;1.50;;;;;;;;;;5025756;28;20041;-55
2021/03/16 06:01:02;;;;;;;6.25;1.65;;;;;;;;;;5034025;28;20066;-52
2021/03/16 06:03:28;;;;;;;6.63;1.30;;;;;;;;;;5031283;28;20132;-53
2021/03/16 06:05:54;;;;;;;7.60;1.50;;;;;;;;;;5033069;28;20052;-53
2021/03/16 06:08:20;;;;;;;7.32;1.30;;;;;;;;;;5023901;28;20138;-53
2021/03/16 06:10:47;;;;;;;6.25;1.60;;;;;;;;;;5027917;28;20505;-54
2021/03/16 06:13:14;;;;;;;5.07;1.42;;;;;;;;;;5034073;28;20044;-55
2021/03/16 06:15:42;;;;;;;3.85;1.50;;;;;;;;;;5033581;28;20052;-55
2021/03/16 06:18:11;;;;;;;7.35;1.50;;;;;;;;;;5033349;28;20498;-54
2021/03/16 06:20:38;;;;;;;5.20;1.30;;;;;;;;;;5030824;28;20053;-53
2021/03/16 06:23:11;;;;;;;8.73;1.50;;;;;;;;;;5030530;28;20056;-55
2021/03/16 06:25:42;;;;;;;12.10;1.92;;;;;;;;;;5027945;28;20053;-55
2021/03/16 06:28:12;;;;;;;4.78;1.55;;;;;;;;;;5030215;28;20133;-55
2021/03/16 06:30:38;;;;;;;8.52;1.50;;;;;;;;;;5014707;28;20041;-55
2021/03/16 06:33:05;;;;;;;5.82;1.98;;;;;;;;;;5029156;28;20068;-56
2021/03/16 06:35:31;;;;;;;4.38;1.42;;;;;;;;;;5029149;28;20045;-56
2021/03/16 06:38:00;;;;;;;5.45;1.25;;;;;;;;;;5033884;28;20041;-56
2021/03/16 06:40:29;;;;;;;10.05;2.28;;;;;;;;;;5028407;28;20425;-55
2021/03/16 06:43:11;;;;;;;5.07;1.52;;;;;;;;;;5034967;28;20048;-53
2021/03/16 06:45:39;;;;;;;5.20;1.30;;;;;;;;;;5035799;28;20041;-55
2021/03/16 06:48:23;;;;;;;4.38;1.30;;;;;;;;;;5034250;28;20029;-55
2021/03/16 06:50:50;;;;;;;6.57;1.42;;;;;;;;;;4963085;28;1836513;-56
2021/03/16 06:53:22;;;;;;;5.45;1.60;;;;;;;;;;5036417;28;20437;-56
2021/03/16 06:55:58;;;;;;;9.15;1.30;;;;;;;;;;5032448;28;20112;-56
2021/03/16 06:58:28;;;;;;;5.32;1.65;;;;;;;;;;5039090;28;20041;-55
2021/03/16 07:01:18;;;;;;;7.20;1.42;;;;;;;;;;5041614;28;20041;-55
2021/03/16 07:03:47;;;;;;;5.45;1.30;;;;;;;;;;5036417;28;20112;-56
2021/03/16 07:06:14;;;;;;;5.68;1.70;;;;;;;;;;5030656;28;20056;-56
2021/03/16 07:08:41;;;;;;;5.18;1.42;;;;;;;;;;5030435;28;20065;-53
2021/03/16 07:11:11;;;;;;;7.00;1.40;;;;;;;;;;5026467;28;20120;-54
2021/03/16 07:13:38;;;;;;;4.97;1.40;;;;;;;;;;5019397;28;20046;-54
2021/03/16 07:16:05;;;;;;;4.88;1.23;;;;;;;;;;5031742;28;20060;-54
2021/03/16 07:18:33;;;;;;;6.72;1.38;;;;;;;;;;5014080;28;20123;-54
2021/03/16 07:21:02;;;;;;;3.97;1.23;;;;;;;;;;5029989;28;20037;-53
2021/03/16 07:23:29;;;;;;;5.25;1.70;;;;;;;;;;5026252;28;20045;-53
2021/03/16 07:25:55;;;;;;;5.20;1.40;;;;;;;;;;5025530;28;20053;-55
2021/03/16 07:28:21;;;;;;;8.20;1.42;;;;;;;;;;5024700;28;20045;-54
2021/03/16 07:30:47;;;;;;;4.55;1.48;;;;;;;;;;5019402;28;20064;-54
2021/03/16 07:33:14;;;;;;;5.32;1.48;;;;;;;;;;5031168;28;20060;-53
2021/03/16 07:35:41;;;;;;;4.97;1.50;;;;;;;;;;5018151;28;20436;-54
2021/03/16 07:38:07;;;;;;;9.50;1.70;;;;;;;;;;5033738;28;20033;-52
2021/03/16 07:40:33;;;;;;;4.45;1.60;;;;;;;;;;5032889;28;20044;-52
2021/03/16 07:42:59;;;;;;;5.40;1.60;;;;;;;;;;5032461;28;20039;-51
2021/03/16 07:45:26;;;;;;;7.63;2.63;;;;;;;;;;5032654;28;20073;-56
2021/03/16 07:47:52;;;;;;;5.18;1.50;;;;;;;;;;5036536;28;20043;-50
2021/03/16 07:50:25;;;;;;;5.47;1.50;;;;;;;;;;5035916;28;20061;-52
2021/03/16 07:52:51;;;;;;;9.33;1.73;;;;;;;;;;5029178;28;20049;-52
2021/03/16 07:55:30;;;;;;;8.80;1.50;;;;;;;;;;5037480;28;20292;-54
2021/03/16 07:58:10;;;;;;;6.10;1.48;;;;;;;;;;5034771;28;20040;-52
2021/03/16 08:00:36;;;;;;;7.20;1.80;;;;;;;;;;5033696;28;20245;-53
2021/03/16 08:03:03;;;;;;;5.28;1.58;;;;;;;;;;5031723;28;20452;-53
2021/03/16 08:05:39;;;;;;;6.07;1.35;;;;;;;;;;5032077;28;20052;-54
2021/03/16 08:08:17;;;;;;;5.15;1.40;;;;;;;;;;5032420;28;20175;-55
2021/03/16 08:10:43;;;;;;;12.82;1.70;;;;;;;;;;5032608;28;20578;-52
2021/03/16 08:13:17;;;;;;;8.27;1.60;;;;;;;;;;5034936;28;20047;-51
2021/03/16 08:15:44;;;;;;;5.93;1.50;;;;;;;;;;5032343;28;20041;-54
2021/03/16 08:18:12;;;;;;;6.93;1.58;;;;;;;;;;5033890;28;20048;-52
2021/03/16 08:20:39;;;;;;;4.13;1.38;;;;;;;;;;5032597;28;20048;-52
2021/03/16 08:23:14;;;;;;;4.57;1.77;;;;;;;;;;5031485;28;20079;-55
2021/03/16 08:25:42;;;;;;;5.50;1.30;;;;;;;;;;5031825;28;20064;-55
2021/03/16 08:28:11;;;;;;;7.30;1.50;;;;;;;;;;5033141;28;20042;-54
2021/03/16 08:30:39;;;;;;;5.63;1.58;;;;;;;;;;5032641;28;20501;-51
2021/03/16 08:33:15;;;;;;;5.90;1.75;;;;;;;;;;5034026;28;20123;-51
2021/03/16 08:35:53;;;;;;;6.15;1.90;;;;;;;;;;5032729;28;20037;-54
2021/03/16 08:38:29;;;;;;;8.75;1.70;;;;;;;;;;5031399;28;20041;-54
2021/03/16 08:41:10;;;;;;;4.93;1.60;;;;;;;;;;5033155;28;20040;-54
2021/03/16 08:43:36;;;;;;;4.50;1.33;;;;;;;;;;5021244;28;20055;-55
2021/03/16 08:46:02;;;;;;;6.55;1.80;;;;;;;;;;5032737;28;20055;-53
2021/03/16 08:48:29;;;;;;;6.70;2.17;;;;;;;;;;5030660;28;20033;-52
2021/03/16 08:50:56;;;;;;;6.13;1.60;;;;;;;;;;5032882;28;20073;-55
2021/03/16 08:53:22;;;;;;;7.05;1.70;;;;;;;;;;5033303;28;20088;-53
2021/03/16 08:55:51;;;;;;;5.20;1.60;;;;;;;;;;5033157;28;20659;-53
2021/03/16 08:58:18;;;;;;;6.57;1.70;;;;;;;;;;5033203;28;20033;-53
2021/03/16 09:00:44;;;;;;;6.32;1.73;;;;;;;;;;5030855;28;20060;-54
2021/03/16 09:03:11;;;;;;;4.70;1.63;;;;;;;;;;5032754;28;20401;-52
2021/03/16 09:05:37;;;;;;;5.70;1.83;;;;;;;;;;5032762;28;20053;-54
2021/03/16 09:08:04;;;;;;;4.88;1.88;;;;;;;;;;5033070;28;20757;-55
2021/03/16 09:10:30;;;;;;;9.55;1.80;;;;;;;;;;5031637;28;20080;-53
2021/03/16 09:12:56;;;;;;;5.78;1.80;;;;;;;;;;5033096;28;20049;-55
2021/03/16 09:15:30;;;;;;;5.95;1.90;;;;;;;;;;5032557;28;20634;-55
2021/03/16 09:18:00;;;;;;;7.85;1.80;;;;;;;;;;5031180;28;21356;-55
2021/03/16 09:20:33;;;;;;;4.78;1.42;;;;;;;;;;5031485;28;21425;-55
2021/03/16 09:23:01;;;;;;;4.90;1.75;;;;;;;;;;5032657;28;20059;-55
2021/03/16 09:25:28;;;;;;;4.80;1.80;;;;;;;;;;5032136;28;20045;-55
2021/03/16 09:28:00;;;;;;;6.30;1.90;;;;;;;;;;5031202;28;20098;-52
2021/03/16 09:30:27;;;;;;;7.22;1.80;;;;;;;;;;5033448;28;20128;-54
2021/03/16 09:32:53;;;;;;;6.03;1.80;;;;;;;;;;5033181;28;20036;-54
2021/03/16 09:35:19;;;;;;;6.60;1.67;;;;;;;;;;5031116;28;20040;-53
2021/03/16 09:37:47;;;;;;;6.32;1.88;;;;;;;;;;5030623;28;20050;-56
2021/03/16 09:40:13;;;;;;;4.78;1.60;;;;;;;;;;5030477;28;20040;-55
2021/03/16 09:42:44;;;;;;;5.03;1.77;;;;;;;;;;5028510;28;20048;-54
2021/03/16 09:45:36;;;;;;;9.18;1.92;;;;;;;;;;5029064;28;20071;-51
2021/03/16 09:48:02;;;;;;;6.47;2.00;;;;;;;;;;5029155;28;20041;-55
2021/03/16 09:50:32;;;;;;;4.53;1.50;;;;;;;;;;5033648;28;20057;-56
2021/03/16 09:53:02;;;;;;;5.97;1.70;;;;;;;;;;5030910;28;20613;-54
2021/03/16 09:55:28;;;;;;;11.77;1.70;;;;;;;;;;5033110;28;20094;-56
2021/03/16 09:57:54;;;;;;;5.13;1.88;;;;;;;;;;5031292;28;20041;-55
2021/03/16 10:00:24;;;;;;;5.88;1.85;;;;;;;;;;5025369;28;20151;-55
2021/03/16 10:02:50;;;;;;;9.52;2.63;;;;;;;;;;5031095;28;20041;-53
2021/03/16 10:05:17;;;;;;;4.97;1.63;;;;;;;;;;5027504;28;20555;-52
2021/03/16 10:07:49;;;;;;;7.20;1.50;;;;;;;;;;5025793;28;20048;-56
2021/03/16 10:10:16;;;;;;;6.20;2.03;;;;;;;;;;5031229;28;20039;-56
2021/03/16 10:12:56;;;;;;;5.75;1.73;;;;;;;;;;5026490;28;20071;-54
2021/03/16 10:15:27;;;;;;;7.55;2.17;;;;;;;;;;5026885;28;20067;-53
2021/03/16 10:17:53;;;;;;;6.72;1.40;;;;;;;;;;5025848;28;20116;-53
2021/03/16 10:20:26;;;;;;;7.45;2.10;;;;;;;;;;5020266;28;20050;-55
2021/03/16 10:22:53;;;;;;;5.57;1.65;;;;;;;;;;5023564;28;20683;-53
2021/03/16 10:25:19;;;;;;;7.07;1.85;;;;;;;;;;5022943;28;20050;-55
2021/03/16 10:27:53;;;;;;;8.38;1.60;;;;;;;;;;5025218;28;20040;-55
2021/03/16 10:30:19;;;;;;;6.45;1.83;;;;;;;;;;5032241;28;20193;-55
2021/03/16 10:32:45;;;;;;;8.55;1.85;;;;;;;;;;5025772;28;20171;-52
2021/03/16 10:35:11;;;;;;;5.68;1.50;;;;;;;;;;5032893;28;20033;-56
2021/03/16 10:37:43;;;;;;;7.22;1.92;;;;;;;;;;5029693;28;20036;-55
2021/03/16 10:40:10;;;;;;;5.65;1.63;;;;;;;;;;5027244;28;20037;-56
2021/03/16 10:42:35;;;;;;;7.75;1.85;;;;;;;;;;5029159;28;20098;-55
2021/03/16 10:45:02;;;;;;;7.60;1.83;;;;;;;;;;5033739;28;20908;-57
2021/03/16 10:47:27;;;;;;;6.93;2.00;;;;;;;;;;5031768;28;20537;-56
2021/03/16 10:49:53;;;;;;;6.90;1.90;;;;;;;;;;5023859;28;20056;-56
2021/03/16 10:52:19;;;;;;;6.00;1.65;;;;;;;;;;5030354;28;20060;-54
2021/03/16 10:54:47;;;;;;;11.45;1.95;;;;;;;;;;5026099;28;20219;-55
2021/03/16 10:57:13;;;;;;;8.57;1.85;;;;;;;;;;5032062;28;20781;-56
2021/03/16 10:59:39;;;;;;;9.52;1.83;;;;;;;;;;5031020;28;20041;-56
2021/03/16 11:02:05;;;;;;;9.05;1.77;;;;;;;;;;5032019;28;20072;-54
2021/03/16 11:04:31;;;;;;;6.97;2.13;;;;;;;;;;5024383;28;20474;-55
2021/03/16 11:06:57;;;;;;;6.32;1.73;;;;;;;;;;5032568;28;20049;-54
2021/03/16 11:09:22;;;;;;;4.65;1.48;;;;;;;;;;5025685;28;20038;-55
2021/03/16 11:11:48;;;;;;;7.95;1.65;;;;;;;;;;5017228;28;20034;-57
2021/03/16 11:14:14;;;;;;;8.68;2.13;;;;;;;;;;5024987;28;20095;-55
2021/03/16 11:16:40;;;;;;;7.30;2.13;;;;;;;;;;5016128;28;20041;-53
2021/03/16 11:19:06;;;;;;;10.45;1.73;;;;;;;;;;5026910;28;20042;-56
2021/03/16 11:21:32;;;;;;;17.63;2.10;;;;;;;;;;5023447;28;20055;-56
2021/03/16 11:23:59;;;;;;;7.50;1.90;;;;;;;;;;5030909;28;20080;-56
2021/03/16 11:26:25;;;;;;;10.13;2.25;;;;;;;;;;5031783;28;20114;-55
2021/03/16 11:28:52;;;;;;;7.47;1.90;;;;;;;;;;5029189;28;20048;-55
2021/03/16 11:31:18;;;;;;;7.28;1.85;;;;;;;;;;5026772;28;21977;-55
2021/03/16 11:33:44;;;;;;;6.45;2.30;;;;;;;;;;5030727;28;20025;-56
2021/03/16 11:36:09;;;;;;;9.07;2.10;;;;;;;;;;5032144;28;20042;-54
2021/03/16 11:38:35;;;;;;;7.75;2.10;;;;;;;;;;5029350;28;20044;-55
2021/03/16 11:41:01;;;;;;;10.20;2.53;;;;;;;;;;5031162;28;20033;-56
2021/03/16 11:43:27;;;;;;;13.07;2.10;;;;;;;;;;5029317;28;20033;-56
2021/03/16 11:45:53;;;;;;;8.77;2.28;;;;;;;;;;5033304;28;20142;-54
2021/03/16 11:48:19;;;;;;;10.15;2.65;;;;;;;;;;5024852;28;20037;-54
2021/03/16 11:50:45;;;;;;;6.25;1.98;;;;;;;;;;5030824;28;20054;-56
2021/03/16 11:53:11;;;;;;;9.73;2.33;;;;;;;;;;5031987;28;20052;-56
2021/03/16 11:55:36;;;;;;;7.00;2.15;;;;;;;;;;5013024;28;20041;-53
2021/03/16 11:58:02;;;;;;;9.95;2.70;;;;;;;;;;5030684;28;20033;-53
2021/03/16 12:00:29;;;;;;;10.07;2.60;;;;;;;;;;5014388;28;20080;-56
2021/03/16 12:02:55;;;;;;;10.27;2.13;;;;;;;;;;5029994;28;20765;-55
2021/03/16 12:05:21;;;;;;;11.98;2.92;;;;;;;;;;5029890;28;20080;-52
2021/03/16 12:07:47;;;;;;;11.98;2.60;;;;;;;;;;5030129;28;20136;-55
2021/03/16 12:10:13;;;;;;;10.77;2.80;;;;;;;;;;5030590;28;20040;-54
2021/03/16 12:12:39;;;;;;;11.27;2.35;;;;;;;;;;5027214;28;20037;-53
2021/03/16 12:15:07;;;;;;;10.02;2.42;;;;;;;;;;5031628;28;20045;-54
2021/03/16 12:17:32;;;;;;;8.02;2.88;;;;;;;;;;5029099;28;20037;-54
2021/03/16 12:19:58;;;;;;;13.55;3.35;;;;;;;;;;5029432;28;20091;-52
2021/03/16 12:22:24;;;;;;;12.60;2.40;;;;;;;;;;5029981;28;20490;-53
2021/03/16 12:24:50;;;;;;;18.05;3.03;;;;;;;;;;5029759;28;20049;-55
2021/03/16 12:27:16;;;;;;;28.98;3.53;;;;;;;;;;5031120;28;20051;-52
2021/03/16 12:29:42;;;;;;;8.43;2.45;;;;;;;;;;5031103;28;20171;-54
2021/03/16 12:32:08;;;;;;;19.33;2.47;;;;;;;;;;5013721;28;20048;-56
2021/03/16 12:34:34;;;;;;;13.15;2.38;;;;;;;;;;5032881;28;20136;-54
2021/03/16 12:37:00;;;;;;;9.75;2.55;;;;;;;;;;5031307;28;20051;-55
2021/03/16 12:39:26;;;;;;;20.52;3.08;;;;;;;;;;5031812;28;20041;-53
2021/03/16 12:41:52;;;;;;;12.45;3.00;;;;;;;;;;5031053;28;20706;-54
2021/03/16 12:44:18;;;;;;;7.68;2.42;;;;;;;;;;5029884;28;20047;-56
2021/03/16 12:46:44;;;;;;;14.02;3.15;;;;;;;;;;5031641;28;20045;-56
2021/03/16 12:49:10;;;;;;;7.72;2.85;;;;;;;;;;5031573;28;20122;-55
2021/03/16 12:51:36;;;;;;;8.80;2.40;;;;;;;;;;5031904;28;20048;-53
2021/03/16 12:54:02;;;;;;;17.52;2.97;;;;;;;;;;5033922;28;20372;-55
2021/03/16 12:56:28;;;;;;;13.85;3.05;;;;;;;;;;5031909;28;20397;-55
2021/03/16 12:58:54;;;;;;;6.70;2.30;;;;;;;;;;5034146;28;20043;-56
2021/03/16 13:01:20;;;;;;;28.10;3.85;;;;;;;;;;5032820;28;20076;-56
2021/03/16 13:03:46;;;;;;;12.07;2.75;;;;;;;;;;5033868;28;20051;-55
2021/03/16 13:06:12;;;;;;;9.77;2.97;;;;;;;;;;5036113;28;20044;-54
2021/03/16 13:08:38;;;;;;;16.10;3.20;;;;;;;;;;5037141;28;20044;-54
2021/03/16 13:11:04;;;;;;;11.88;2.50;;;;;;;;;;5038781;28;20068;-57
2021/03/16 13:13:30;;;;;;;12.13;2.70;;;;;;;;;;5036711;28;20069;-54
2021/03/16 13:15:55;;;;;;;15.27;3.50;;;;;;;;;;5013820;28;20048;-54
2021/03/16 13:18:21;;;;;;;11.98;3.95;;;;;;;;;;5033550;28;20037;-55
2021/03/16 13:20:48;;;;;;;13.95;3.63;;;;;;;;;;5033427;28;20047;-54
2021/03/16 13:23:13;;;;;;;9.98;3.22;;;;;;;;;;5034762;28;20029;-55
2021/03/16 13:25:39;;;;;;;12.48;2.80;;;;;;;;;;5032896;28;20099;-53
2021/03/16 13:28:05;;;;;;;11.88;3.00;;;;;;;;;;5033533;28;20045;-55
2021/03/16 13:30:32;;;;;;;15.50;3.10;;;;;;;;;;5027333;28;20040;-55
2021/03/16 13:32:58;;;;;;;13.90;3.20;;;;;;;;;;5033164;28;20441;-53
2021/03/16 13:35:25;;;;;;;16.25;2.55;;;;;;;;;;5030149;28;20288;-53
2021/03/16 13:37:52;;;;;;;13.85;2.70;;;;;;;;;;5031596;28;20045;-55
2021/03/16 13:40:21;;;;;;;13.38;3.10;;;;;;;;;;5030723;28;20071;-56
2021/03/16 13:42:47;;;;;;;9.68;2.20;;;;;;;;;;5031088;28;20687;-52
2021/03/16 13:45:13;;;;;;;10.63;2.85;;;;;;;;;;5030188;28;20068;-52
2021/03/16 13:47:39;;;;;;;13.73;3.22;;;;;;;;;;5031393;28;20470;-52
2021/03/16 13:50:06;;;;;;;11.73;3.38;;;;;;;;;;5031631;28;20056;-55
2021/03/16 13:52:31;;;;;;;12.60;2.72;;;;;;;;;;5028884;28;20786;-56
2021/03/16 13:54:58;;;;;;;12.20;3.10;;;;;;;;;;5030622;28;20040;-53
2021/03/16 13:57:23;;;;;;;22.85;4.10;;;;;;;;;;5030310;28;20044;-52
2021/03/16 13:59:49;;;;;;;21.02;3.13;;;;;;;;;;5030443;28;22660;-55
2021/03/16 14:02:17;;;;;;;9.88;3.22;;;;;;;;;;5031603;28;20044;-55
2021/03/16 14:04:43;;;;;;;12.90;2.53;;;;;;;;;;5028789;28;20053;-54
2021/03/16 14:07:09;;;;;;;14.63;2.55;;;;;;;;;;5031159;28;20496;-55
2021/03/16 14:09:36;;;;;;;9.30;2.60;;;;;;;;;;5033196;28;20041;-54
2021/03/16 14:12:02;;;;;;;12.65;2.85;;;;;;;;;;5031257;28;20040;-55
2021/03/16 14:14:28;;;;;;;12.50;3.00;;;;;;;;;;5031074;28;20123;-54
2021/03/16 14:16:54;;;;;;;10.38;3.08;;;;;;;;;;5031237;28;20079;-55
2021/03/16 14:19:20;;;;;;;13.85;2.63;;;;;;;;;;5030391;28;20202;-52
2021/03/16 14:21:46;;;;;;;10.85;3.35;;;;;;;;;;5031998;28;20041;-54
2021/03/16 14:24:12;;;;;;;13.98;2.97;;;;;;;;;;5033041;28;20048;-53
2021/03/16 14:26:38;;;;;;;17.73;3.10;;;;;;;;;;5031182;28;20183;-53
2021/03/16 14:29:04;;;;;;;9.77;2.83;;;;;;;;;;5031557;28;20762;-52
2021/03/16 14:31:30;;;;;;;11.43;3.97;;;;;;;;;;5029916;28;20040;-54
2021/03/16 14:33:56;;;;;;;21.38;3.50;;;;;;;;;;5029881;28;20080;-55
2021/03/16 14:36:21;;;;;;;16.30;3.90;;;;;;;;;;5028980;28;20125;-53
2021/03/16 14:38:47;;;;;;;12.43;3.40;;;;;;;;;;5030962;28;20096;-52
2021/03/16 14:41:13;;;;;;;15.55;3.25;;;;;;;;;;5032110;28;20509;-54